Time;durP1;ratioP1;P1;durP2;ratioP2;P2;SDS_P1;SDS_P2;PMS_P1;PMS_P2;Temp;Humidity;BMP_temperature;BMP_pressure;BME280_temperature;BME280_humidity;BME280_pressure;Samples;Min_cycle;Max_cycle;Signal;HPM_P1;HPM_P2
2020/07/26 00:01:33;;;;;;;1.60;1.50;;;;;;;21.82;62.75;99701.03;;;;-53
2020/07/26 00:04:33;;;;;;;1.77;1.67;;;;;;;21.81;62.77;99702.84;;;;-54
2020/07/26 00:07:33;;;;;;;1.70;1.60;;;;;;;21.81;62.78;99703.75;;;;-53
2020/07/26 00:10:33;;;;;;;2.04;1.68;;;;;;;21.81;62.77;99698.91;;;;-53
2020/07/26 00:13:33;;;;;;;1.50;1.40;;;;;;;21.80;62.75;99700.16;;;;-53
2020/07/26 00:16:33;;;;;;;2.20;1.67;;;;;;;21.80;62.77;99705.88;;;;-53
2020/07/26 00:19:33;;;;;;;1.62;1.52;;;;;;;21.80;62.75;99704.80;;;;-54
2020/07/26 00:22:33;;;;;;;1.64;1.53;;;;;;;21.80;62.75;99712.70;;;;-53
2020/07/26 00:25:33;;;;;;;2.20;1.57;;;;;;;21.79;62.76;99719.26;;;;-53
2020/07/26 00:28:33;;;;;;;1.59;1.47;;;;;;;21.79;62.76;99728.56;;;;-54
2020/07/26 00:31:33;;;;;;;2.05;1.55;;;;;;;21.80;62.76;99729.28;;;;-53
2020/07/26 00:34:33;;;;;;;1.73;1.43;;;;;;;21.79;62.71;99734.75;;;;-53
2020/07/26 00:37:33;;;;;;;2.15;1.62;;;;;;;21.80;62.74;99719.89;;;;-53
2020/07/26 00:40:33;;;;;;;3.06;1.69;;;;;;;21.79;62.71;99724.48;;;;-53
2020/07/26 00:43:33;;;;;;;1.86;1.60;;;;;;;21.79;62.68;99726.69;;;;-54
2020/07/26 00:46:33;;;;;;;1.65;1.47;;;;;;;21.79;62.70;99722.36;;;;-53
2020/07/26 00:49:33;;;;;;;2.55;1.42;;;;;;;21.79;62.68;99718.61;;;;-53
2020/07/26 00:52:33;;;;;;;2.55;1.60;;;;;;;21.79;62.72;99716.72;;;;-53
2020/07/26 00:55:33;;;;;;;1.68;1.58;;;;;;;21.79;62.70;99721.45;;;;-53
2020/07/26 00:58:33;;;;;;;1.73;1.50;;;;;;;21.79;62.71;99749.36;;;;-53
2020/07/26 01:01:33;;;;;;;1.75;1.56;;;;;;;21.79;62.69;99752.61;;;;-53
2020/07/26 01:04:33;;;;;;;2.01;1.53;;;;;;;21.79;62.72;99753.75;;;;-53
2020/07/26 01:07:33;;;;;;;1.53;1.42;;;;;;;21.78;62.71;99750.67;;;;-53
2020/07/26 01:10:33;;;;;;;1.69;1.50;;;;;;;21.78;62.72;99747.17;;;;-54
2020/07/26 01:13:33;;;;;;;2.37;1.48;;;;;;;21.78;62.70;99743.83;;;;-53
2020/07/26 01:16:33;;;;;;;1.98;1.58;;;;;;;21.77;62.70;99720.84;;;;-53
2020/07/26 01:19:33;;;;;;;2.72;1.52;;;;;;;21.77;62.71;99715.06;;;;-53
2020/07/26 01:22:33;;;;;;;2.27;1.61;;;;;;;21.77;62.73;99718.23;;;;-53
2020/07/26 01:25:33;;;;;;;1.61;1.50;;;;;;;21.77;62.66;99732.27;;;;-53
2020/07/26 01:28:33;;;;;;;1.93;1.45;;;;;;;21.77;62.66;99721.81;;;;-54
2020/07/26 01:31:33;;;;;;;1.91;1.48;;;;;;;21.77;62.73;99722.64;;;;-53
2020/07/26 01:34:33;;;;;;;1.74;1.50;;;;;;;21.77;62.69;99723.46;;;;-54
2020/07/26 01:37:33;;;;;;;1.61;1.51;;;;;;;21.76;62.66;99736.92;;;;-53
2020/07/26 01:40:33;;;;;;;1.56;1.46;;;;;;;21.76;62.67;99737.01;;;;-53
2020/07/26 01:43:33;;;;;;;1.67;1.51;;;;;;;21.76;62.66;99737.25;;;;-53
2020/07/26 01:46:33;;;;;;;1.72;1.50;;;;;;;21.76;62.68;99740.67;;;;-54
2020/07/26 01:49:33;;;;;;;1.53;1.43;;;;;;;21.75;62.67;99751.45;;;;-54
2020/07/26 01:52:33;;;;;;;1.91;1.59;;;;;;;21.76;62.71;99766.53;;;;-53
2020/07/26 01:55:33;;;;;;;1.63;1.43;;;;;;;21.75;62.69;99778.78;;;;-53
2020/07/26 01:58:33;;;;;;;1.50;1.40;;;;;;;21.75;62.67;99773.00;;;;-54
2020/07/26 02:01:33;;;;;;;1.65;1.52;;;;;;;21.75;62.69;99769.08;;;;-54
2020/07/26 02:04:33;;;;;;;2.15;1.50;;;;;;;21.74;62.67;99762.70;;;;-53
2020/07/26 02:07:33;;;;;;;1.65;1.44;;;;;;;21.74;62.68;99752.69;;;;-54
2020/07/26 02:10:33;;;;;;;1.60;1.40;;;;;;;21.74;62.68;99758.30;;;;-53
2020/07/26 02:13:33;;;;;;;2.00;1.40;;;;;;;21.74;62.63;99769.98;;;;-53
2020/07/26 02:16:33;;;;;;;1.56;1.46;;;;;;;21.73;62.67;99762.73;;;;-51
2020/07/26 02:19:33;;;;;;;1.83;1.42;;;;;;;21.73;62.68;99771.63;;;;-53
2020/07/26 02:22:33;;;;;;;1.87;1.40;;;;;;;21.73;62.65;99780.12;;;;-52
2020/07/26 02:25:33;;;;;;;2.05;1.48;;;;;;;21.72;62.67;99798.30;;;;-51
2020/07/26 02:28:33;;;;;;;1.76;1.44;;;;;;;21.72;62.68;99814.93;;;;-51
2020/07/26 02:31:33;;;;;;;1.48;1.38;;;;;;;21.72;62.71;99814.04;;;;-52
2020/07/26 02:34:33;;;;;;;1.52;1.36;;;;;;;21.72;62.70;99811.19;;;;-51
2020/07/26 02:37:33;;;;;;;1.55;1.45;;;;;;;21.72;62.69;99813.64;;;;-50
2020/07/26 02:40:33;;;;;;;2.65;1.43;;;;;;;21.72;62.67;99826.85;;;;-51
2020/07/26 02:43:33;;;;;;;1.75;1.44;;;;;;;21.71;62.68;99831.52;;;;-52
2020/07/26 02:46:33;;;;;;;1.62;1.49;;;;;;;21.71;62.67;99835.03;;;;-52
2020/07/26 02:49:33;;;;;;;1.44;1.32;;;;;;;21.71;62.70;99851.09;;;;-52
2020/07/26 02:52:33;;;;;;;1.50;1.40;;;;;;;21.71;62.69;99854.28;;;;-51
2020/07/26 02:55:33;;;;;;;1.50;1.40;;;;;;;21.71;62.75;99865.38;;;;-52
2020/07/26 02:58:33;;;;;;;1.97;1.40;;;;;;;21.70;62.65;99876.05;;;;-51
2020/07/26 03:01:33;;;;;;;1.49;1.39;;;;;;;21.70;62.74;99890.98;;;;-52
2020/07/26 03:04:33;;;;;;;2.69;1.52;;;;;;;21.70;62.72;99888.68;;;;-51
2020/07/26 03:07:33;;;;;;;1.41;1.31;;;;;;;21.70;62.70;99885.43;;;;-52
2020/07/26 03:10:33;;;;;;;2.11;1.43;;;;;;;21.70;62.70;99886.97;;;;-51
2020/07/26 03:13:33;;;;;;;1.40;1.30;;;;;;;21.69;62.71;99889.13;;;;-52
2020/07/26 03:16:33;;;;;;;1.63;1.53;;;;;;;21.69;62.72;99896.63;;;;-51
2020/07/26 03:19:33;;;;;;;1.50;1.40;;;;;;;21.69;62.67;99894.17;;;;-52
2020/07/26 03:22:33;;;;;;;1.40;1.30;;;;;;;21.68;62.74;99891.71;;;;-52
2020/07/26 03:25:33;;;;;;;1.51;1.41;;;;;;;21.69;62.74;99881.38;;;;-51
2020/07/26 03:28:33;;;;;;;1.69;1.30;;;;;;;21.68;62.78;99874.11;;;;-52
2020/07/26 03:31:32;;;;;;;2.09;1.50;;;;;;;21.68;62.71;99869.20;;;;-52
2020/07/26 03:34:33;;;;;;;1.55;1.37;;;;;;;21.68;62.74;99872.64;;;;-52
2020/07/26 03:37:33;;;;;;;1.45;1.35;;;;;;;21.67;62.74;99862.71;;;;-51
2020/07/26 03:40:33;;;;;;;1.51;1.39;;;;;;;21.67;62.75;99860.77;;;;-51
2020/07/26 03:43:33;;;;;;;1.39;1.29;;;;;;;21.67;62.74;99857.42;;;;-51
2020/07/26 03:46:33;;;;;;;1.51;1.40;;;;;;;21.67;62.71;99863.22;;;;-51
2020/07/26 03:49:33;;;;;;;2.13;1.40;;;;;;;21.67;62.75;99858.39;;;;-52
2020/07/26 03:52:33;;;;;;;1.51;1.41;;;;;;;21.67;62.73;99859.88;;;;-52
2020/07/26 03:55:33;;;;;;;1.58;1.48;;;;;;;21.67;62.80;99855.63;;;;-52
2020/07/26 03:58:33;;;;;;;1.40;1.30;;;;;;;21.67;62.75;99845.92;;;;-52
2020/07/26 04:01:33;;;;;;;1.47;1.37;;;;;;;21.67;62.79;99850.75;;;;-52
2020/07/26 04:04:32;;;;;;;1.43;1.33;;;;;;;21.67;62.79;99871.20;;;;-52
2020/07/26 04:07:32;;;;;;;1.55;1.41;;;;;;;21.67;62.75;99891.84;;;;-51
2020/07/26 04:10:33;;;;;;;2.59;1.45;;;;;;;21.66;62.74;99885.95;;;;-52
2020/07/26 04:13:33;;;;;;;1.54;1.44;;;;;;;21.66;62.79;99872.51;;;;-52
2020/07/26 04:16:33;;;;;;;1.55;1.45;;;;;;;21.66;62.83;99867.61;;;;-51
2020/07/26 04:19:33;;;;;;;1.49;1.35;;;;;;;21.66;62.79;99856.94;;;;-52
2020/07/26 04:22:33;;;;;;;1.41;1.30;;;;;;;21.66;62.82;99860.52;;;;-51
2020/07/26 04:25:33;;;;;;;1.53;1.43;;;;;;;21.66;62.79;99867.70;;;;-51
2020/07/26 04:28:33;;;;;;;1.40;1.30;;;;;;;21.65;62.81;99874.80;;;;-51
2020/07/26 04:31:33;;;;;;;1.49;1.39;;;;;;;21.66;62.84;99867.87;;;;-51
2020/07/26 04:34:33;;;;;;;1.50;1.40;;;;;;;21.65;62.80;99858.82;;;;-51
2020/07/26 04:37:33;;;;;;;1.57;1.41;;;;;;;21.65;62.89;99857.35;;;;-52
2020/07/26 04:40:32;;;;;;;1.59;1.39;;;;;;;21.65;62.84;99859.33;;;;-52
2020/07/26 04:43:33;;;;;;;1.43;1.33;;;;;;;21.65;62.84;99863.66;;;;-51
2020/07/26 04:46:33;;;;;;;1.40;1.30;;;;;;;21.65;62.84;99877.52;;;;-51
2020/07/26 04:49:33;;;;;;;1.36;1.26;;;;;;;21.65;62.88;99899.61;;;;-52
2020/07/26 04:52:33;;;;;;;1.52;1.39;;;;;;;21.65;62.85;99907.02;;;;-52
2020/07/26 04:55:33;;;;;;;1.59;1.49;;;;;;;21.64;62.88;99910.39;;;;-51
2020/07/26 04:58:33;;;;;;;1.40;1.30;;;;;;;21.64;62.86;99910.78;;;;-51
2020/07/26 05:01:33;;;;;;;1.40;1.30;;;;;;;21.65;62.88;99919.83;;;;-51
2020/07/26 05:04:33;;;;;;;2.39;1.38;;;;;;;21.65;62.89;99926.77;;;;-51
2020/07/26 05:07:33;;;;;;;1.37;1.27;;;;;;;21.64;62.90;99925.77;;;;-51
2020/07/26 05:10:32;;;;;;;1.36;1.26;;;;;;;21.64;62.89;99922.29;;;;-51
2020/07/26 05:13:33;;;;;;;1.48;1.33;;;;;;;21.64;62.93;99919.84;;;;-51
2020/07/26 05:16:33;;;;;;;1.40;1.30;;;;;;;21.64;62.92;99933.03;;;;-52
2020/07/26 05:19:33;;;;;;;1.42;1.32;;;;;;;21.64;62.90;99928.96;;;;-51
2020/07/26 05:22:33;;;;;;;1.45;1.35;;;;;;;21.64;62.89;99935.16;;;;-51
2020/07/26 05:25:33;;;;;;;1.50;1.40;;;;;;;21.64;62.92;99935.39;;;;-51
2020/07/26 05:28:33;;;;;;;1.89;1.40;;;;;;;21.64;62.88;99936.38;;;;-51
2020/07/26 05:31:33;;;;;;;1.55;1.45;;;;;;;21.64;62.92;99934.20;;;;-52
2020/07/26 05:34:33;;;;;;;1.42;1.32;;;;;;;21.64;62.91;99932.55;;;;-52
2020/07/26 05:37:33;;;;;;;1.43;1.33;;;;;;;21.63;62.93;99934.84;;;;-51
2020/07/26 05:40:33;;;;;;;1.48;1.38;;;;;;;21.63;62.91;99935.82;;;;-52
2020/07/26 05:43:32;;;;;;;1.59;1.37;;;;;;;21.63;62.91;99939.01;;;;-51
2020/07/26 05:46:32;;;;;;;1.53;1.43;;;;;;;21.63;62.94;99943.98;;;;-51
2020/07/26 05:49:33;;;;;;;1.59;1.49;;;;;;;21.64;62.94;99946.66;;;;-51
2020/07/26 05:52:33;;;;;;;1.50;1.40;;;;;;;21.64;62.92;99955.80;;;;-52
2020/07/26 05:55:33;;;;;;;1.40;1.30;;;;;;;21.63;62.92;99966.16;;;;-51
2020/07/26 05:58:33;;;;;;;1.57;1.47;;;;;;;21.63;62.90;99975.95;;;;-52
2020/07/26 06:01:33;;;;;;;1.40;1.30;;;;;;;21.63;62.91;99977.73;;;;-52
2020/07/26 06:04:33;;;;;;;1.35;1.25;;;;;;;21.63;62.92;99968.53;;;;-50
2020/07/26 06:07:33;;;;;;;1.78;1.41;;;;;;;21.63;62.93;99965.59;;;;-52
2020/07/26 06:10:33;;;;;;;5.79;1.97;;;;;;;21.62;66.96;99964.46;;;;-55
2020/07/26 06:13:32;;;;;;;2.47;2.08;;;;;;;21.62;67.99;99965.27;;;;-57
2020/07/26 06:16:33;;;;;;;4.13;2.43;;;;;;;21.61;69.70;99969.20;;;;-50
2020/07/26 06:19:32;;;;;;;2.68;2.36;;;;;;;21.63;68.80;99965.45;;;;-50
2020/07/26 06:22:33;;;;;;;2.50;2.29;;;;;;;21.63;69.89;99965.92;;;;-50
2020/07/26 06:25:33;;;;;;;4.02;2.44;;;;;;;21.62;70.16;99955.09;;;;-51
2020/07/26 06:28:33;;;;;;;2.86;2.51;;;;;;;21.65;69.93;99946.48;;;;-51
2020/07/26 06:31:33;;;;;;;4.32;2.54;;;;;;;21.67;69.29;99949.49;;;;-51
2020/07/26 06:34:33;;;;;;;3.65;2.77;;;;;;;21.68;68.86;99956.47;;;;-50
2020/07/26 06:37:33;;;;;;;2.67;2.19;;;;;;;21.69;68.35;99959.58;;;;-50
2020/07/26 06:40:32;;;;;;;2.34;2.14;;;;;;;21.71;67.89;99963.40;;;;-52
2020/07/26 06:43:32;;;;;;;2.71;2.20;;;;;;;21.71;67.49;99976.77;;;;-51
2020/07/26 06:46:32;;;;;;;3.74;2.33;;;;;;;21.72;67.36;99979.45;;;;-51
2020/07/26 06:49:32;;;;;;;2.75;2.32;;;;;;;21.73;67.03;99983.11;;;;-51
2020/07/26 06:52:32;;;;;;;2.45;2.25;;;;;;;21.73;66.95;99981.48;;;;-50
2020/07/26 06:55:33;;;;;;;2.34;2.07;;;;;;;21.73;66.63;99993.95;;;;-51
2020/07/26 06:58:33;;;;;;;2.91;2.33;;;;;;;21.74;66.54;99997.84;;;;-51
2020/07/26 07:01:33;;;;;;;3.47;2.14;;;;;;;21.74;66.38;100002.01;;;;-51
2020/07/26 07:04:33;;;;;;;3.39;2.00;;;;;;;21.74;66.27;100004.86;;;;-51
2020/07/26 07:07:33;;;;;;;2.63;2.06;;;;;;;21.74;66.15;100001.67;;;;-50
2020/07/26 07:10:33;;;;;;;2.25;2.08;;;;;;;21.75;66.08;100003.97;;;;-50
2020/07/26 07:13:32;;;;;;;2.78;2.08;;;;;;;21.75;65.98;100005.34;;;;-51
2020/07/26 07:16:32;;;;;;;2.92;2.21;;;;;;;21.75;65.86;100011.95;;;;-52
2020/07/26 07:19:32;;;;;;;2.41;2.21;;;;;;;21.76;65.69;100005.83;;;;-52
2020/07/26 07:22:32;;;;;;;4.25;2.27;;;;;;;21.75;65.57;100005.75;;;;-53
2020/07/26 07:25:33;;;;;;;2.31;2.11;;;;;;;21.76;65.48;99999.86;;;;-53
2020/07/26 07:28:33;;;;;;;3.16;2.23;;;;;;;21.77;65.51;100004.17;;;;-53
2020/07/26 07:31:33;;;;;;;2.39;2.19;;;;;;;21.76;65.39;100004.59;;;;-53
2020/07/26 07:34:33;;;;;;;2.30;2.01;;;;;;;21.76;65.32;100003.95;;;;-53
2020/07/26 07:37:33;;;;;;;2.19;1.99;;;;;;;21.76;65.31;100001.65;;;;-53
2020/07/26 07:40:33;;;;;;;2.47;2.04;;;;;;;21.76;65.19;100002.41;;;;-53
2020/07/26 07:43:32;;;;;;;2.31;2.11;;;;;;;21.76;65.16;100003.86;;;;-53
2020/07/26 07:46:32;;;;;;;3.21;1.96;;;;;;;21.76;65.04;100008.17;;;;-53
2020/07/26 07:49:32;;;;;;;2.19;1.99;;;;;;;21.77;65.02;100010.86;;;;-53
2020/07/26 07:52:32;;;;;;;2.33;2.07;;;;;;;21.77;65.03;100013.41;;;;-54
2020/07/26 07:55:32;;;;;;;2.12;1.92;;;;;;;21.76;64.97;100002.55;;;;-53
2020/07/26 07:58:33;;;;;;;2.08;1.90;;;;;;;21.77;64.89;100004.17;;;;-53
2020/07/26 08:01:33;;;;;;;1.76;1.66;;;;;;;21.77;64.86;100007.38;;;;-53
2020/07/26 08:04:33;;;;;;;2.49;2.04;;;;;;;21.78;65.04;100005.88;;;;-53
2020/07/26 08:07:33;;;;;;;2.53;2.03;;;;;;;21.79;64.97;100006.69;;;;-61
2020/07/26 08:10:33;;;;;;;2.07;1.87;;;;;;;21.80;65.04;100009.11;;;;-65
2020/07/26 08:13:33;;;;;;;2.36;1.87;;;;;;;21.82;65.11;100015.97;;;;-50
2020/07/26 08:16:32;;;;;;;2.95;2.09;;;;;;;21.83;65.12;100017.59;;;;-52
2020/07/26 08:19:33;;;;;;;3.07;1.87;;;;;;;21.85;65.14;100012.24;;;;-54
2020/07/26 08:22:32;;;;;;;4.07;1.97;;;;;;;21.86;65.10;100011.34;;;;-59
2020/07/26 08:25:32;;;;;;;6.06;2.33;;;;;;;21.87;65.28;100015.42;;;;-58
2020/07/26 08:28:33;;;;;;;3.91;2.08;;;;;;;21.89;65.20;100013.59;;;;-58
2020/07/26 08:31:33;;;;;;;4.57;2.21;;;;;;;21.89;65.15;100011.89;;;;-56
2020/07/26 08:34:33;;;;;;;3.97;2.18;;;;;;;21.90;65.18;100015.45;;;;-55
2020/07/26 08:37:33;;;;;;;3.89;2.01;;;;;;;21.91;65.18;100013.90;;;;-54
2020/07/26 08:40:33;;;;;;;4.22;1.94;;;;;;;21.92;65.18;100010.55;;;;-52
2020/07/26 08:43:33;;;;;;;3.74;2.08;;;;;;;21.94;65.14;100009.95;;;;-53
2020/07/26 08:46:32;;;;;;;5.03;1.88;;;;;;;21.96;65.16;100007.98;;;;-54
2020/07/26 08:49:32;;;;;;;5.05;2.05;;;;;;;21.96;65.18;100012.30;;;;-51
2020/07/26 08:52:32;;;;;;;3.59;2.10;;;;;;;21.97;65.20;100013.16;;;;-52
2020/07/26 08:55:32;;;;;;;2.67;1.90;;;;;;;21.97;65.09;100008.27;;;;-51
2020/07/26 08:58:32;;;;;;;2.30;1.77;;;;;;;21.99;65.10;100015.20;;;;-51
2020/07/26 09:01:32;;;;;;;2.95;1.90;;;;;;;21.99;65.13;100016.73;;;;-51
2020/07/26 09:04:33;;;;;;;8.11;2.12;;;;;;;22.02;65.08;100017.53;;;;-54
2020/07/26 09:07:32;;;;;;;7.35;2.03;;;;;;;22.02;64.93;100019.59;;;;-59
2020/07/26 09:10:33;;;;;;;2.48;1.81;;;;;;;22.03;65.08;100013.52;;;;-59
2020/07/26 09:13:32;;;;;;;5.90;2.09;;;;;;;22.04;64.95;100012.39;;;;-51
2020/07/26 09:16:33;;;;;;;6.16;2.18;;;;;;;22.06;64.91;100014.38;;;;-61
2020/07/26 09:19:32;;;;;;;5.59;2.00;;;;;;;22.05;65.05;100018.23;;;;-51
2020/07/26 09:22:32;;;;;;;5.53;2.03;;;;;;;22.06;65.13;100028.17;;;;-53
2020/07/26 09:25:32;;;;;;;4.44;1.88;;;;;;;22.07;65.10;100018.30;;;;-53
2020/07/26 09:28:33;;;;;;;6.39;2.11;;;;;;;22.08;65.11;100025.12;;;;-54
2020/07/26 09:31:33;;;;;;;6.57;2.19;;;;;;;22.09;65.09;100025.62;;;;-52
2020/07/26 09:34:33;;;;;;;6.65;1.92;;;;;;;22.09;65.01;100024.47;;;;-53
2020/07/26 09:37:33;;;;;;;5.53;2.11;;;;;;;22.10;64.95;100024.20;;;;-53
2020/07/26 09:40:33;;;;;;;6.51;2.17;;;;;;;22.11;64.99;100024.37;;;;-53
2020/07/26 09:43:32;;;;;;;4.93;1.93;;;;;;;22.11;64.91;100026.48;;;;-56
2020/07/26 09:46:32;;;;;;;3.27;2.13;;;;;;;22.12;64.85;100026.30;;;;-60
2020/07/26 09:49:32;;;;;;;7.25;2.15;;;;;;;22.13;64.85;100029.73;;;;-54
2020/07/26 09:52:32;;;;;;;8.03;2.35;;;;;;;22.14;64.95;100032.09;;;;-59
2020/07/26 09:55:32;;;;;;;2.53;1.78;;;;;;;22.15;64.88;100024.88;;;;-58
2020/07/26 09:58:33;;;;;;;3.54;1.99;;;;;;;22.16;64.79;100011.16;;;;-60
2020/07/26 10:01:33;;;;;;;3.47;1.98;;;;;;;22.17;64.83;100019.41;;;;-57
2020/07/26 10:04:33;;;;;;;5.83;2.13;;;;;;;22.17;64.91;100025.11;;;;-57
2020/07/26 10:07:33;;;;;;;5.97;2.18;;;;;;;22.18;64.85;100032.59;;;;-58
2020/07/26 10:10:33;;;;;;;6.47;2.05;;;;;;;22.19;64.78;100013.27;;;;-52
2020/07/26 10:13:32;;;;;;;5.21;1.85;;;;;;;22.20;64.78;100014.54;;;;-52
2020/07/26 10:16:32;;;;;;;5.05;1.91;;;;;;;22.21;64.75;100021.89;;;;-57
2020/07/26 10:19:32;;;;;;;3.70;1.84;;;;;;;22.21;64.63;100018.38;;;;-54
2020/07/26 10:22:33;;;;;;;6.11;1.94;;;;;;;22.21;64.61;100031.28;;;;-54
2020/07/26 10:25:32;;;;;;;6.76;1.97;;;;;;;22.19;64.63;100046.05;;;;-58
2020/07/26 10:28:33;;;;;;;5.91;2.17;;;;;;;22.19;64.63;100080.59;;;;-57
2020/07/26 10:31:32;;;;;;;5.35;1.78;;;;;;;22.19;64.54;100102.63;;;;-58
2020/07/26 10:34:33;;;;;;;4.23;1.95;;;;;;;22.19;64.50;100107.11;;;;-58
2020/07/26 10:37:33;;;;;;;3.26;2.16;;;;;;;22.18;64.46;100109.42;;;;-58
2020/07/26 10:40:33;;;;;;;2.91;1.91;;;;;;;22.18;64.40;100096.99;;;;-58
2020/07/26 10:43:32;;;;;;;3.39;1.87;;;;;;;22.18;64.40;100102.31;;;;-57
2020/07/26 10:46:33;;;;;;;3.61;1.92;;;;;;;22.17;64.35;100095.87;;;;-58
2020/07/26 10:49:33;;;;;;;4.07;1.93;;;;;;;22.17;64.34;100099.40;;;;-57
2020/07/26 10:52:33;;;;;;;4.89;1.91;;;;;;;22.17;64.29;100104.29;;;;-57
2020/07/26 10:55:32;;;;;;;4.25;1.80;;;;;;;22.16;64.29;100103.63;;;;-58
2020/07/26 10:58:33;;;;;;;2.59;1.87;;;;;;;22.15;64.35;100098.34;;;;-58
2020/07/26 11:01:33;;;;;;;3.02;1.84;;;;;;;22.15;64.19;100095.07;;;;-58
2020/07/26 11:04:32;;;;;;;3.14;1.89;;;;;;;22.15;64.21;100107.25;;;;-57
2020/07/26 11:07:33;;;;;;;4.17;1.77;;;;;;;22.14;64.21;100105.11;;;;-58
2020/07/26 11:10:33;;;;;;;4.52;1.79;;;;;;;22.15;64.22;100098.44;;;;-58
2020/07/26 11:13:32;;;;;;;2.74;1.80;;;;;;;22.14;64.20;100096.23;;;;-58
2020/07/26 11:16:33;;;;;;;2.47;1.73;;;;;;;22.14;64.16;100099.58;;;;-57
2020/07/26 11:19:32;;;;;;;2.53;1.69;;;;;;;22.14;64.09;100099.25;;;;-58
2020/07/26 11:22:32;;;;;;;3.42;1.73;;;;;;;22.14;64.09;100100.23;;;;-57
2020/07/26 11:25:32;;;;;;;3.19;1.73;;;;;;;22.13;64.07;100093.22;;;;-57
2020/07/26 11:28:32;;;;;;;2.27;1.73;;;;;;;22.13;64.11;100093.23;;;;-58
2020/07/26 11:31:32;;;;;;;3.30;1.81;;;;;;;22.13;64.08;100088.41;;;;-56
2020/07/26 11:34:33;;;;;;;2.59;1.79;;;;;;;22.12;64.05;100086.36;;;;-58
2020/07/26 11:37:33;;;;;;;2.29;1.77;;;;;;;22.12;64.05;100087.77;;;;-58
2020/07/26 11:40:33;;;;;;;2.44;1.60;;;;;;;22.12;64.03;100090.12;;;;-57
2020/07/26 11:43:33;;;;;;;2.42;1.83;;;;;;;22.12;64.08;100084.84;;;;-54
2020/07/26 11:46:32;;;;;;;5.58;1.92;;;;;;;22.13;64.07;100080.33;;;;-57
2020/07/26 11:49:32;;;;;;;3.87;1.76;;;;;;;22.13;64.00;100083.75;;;;-56
2020/07/26 11:52:32;;;;;;;2.95;1.77;;;;;;;22.12;64.12;100084.23;;;;-51
2020/07/26 11:55:32;;;;;;;2.75;1.80;;;;;;;22.13;64.14;100078.86;;;;-58
2020/07/26 11:58:32;;;;;;;5.26;1.97;;;;;;;22.15;64.17;100081.21;;;;-58
2020/07/26 12:01:32;;;;;;;3.69;1.70;;;;;;;22.16;64.12;100086.27;;;;-57
2020/07/26 12:04:32;;;;;;;3.13;2.00;;;;;;;22.17;64.25;100086.73;;;;-51
2020/07/26 12:07:33;;;;;;;3.85;1.79;;;;;;;22.18;64.27;100095.55;;;;-60
2020/07/26 12:10:33;;;;;;;3.87;1.96;;;;;;;22.18;64.28;100098.97;;;;-58
2020/07/26 12:13:33;;;;;;;2.75;1.88;;;;;;;22.19;64.20;100110.53;;;;-58
2020/07/26 12:16:32;;;;;;;4.00;1.71;;;;;;;22.21;64.30;100136.00;;;;-54
2020/07/26 12:19:32;;;;;;;4.13;1.77;;;;;;;22.21;64.40;100151.41;;;;-53
2020/07/26 12:22:32;;;;;;;2.71;1.73;;;;;;;22.22;64.36;100147.39;;;;-52
2020/07/26 12:25:32;;;;;;;5.11;1.88;;;;;;;22.24;64.52;100156.56;;;;-50
2020/07/26 12:28:32;;;;;;;6.53;1.95;;;;;;;22.24;64.55;100154.99;;;;-53
2020/07/26 12:31:32;;;;;;;6.60;2.00;;;;;;;22.28;64.79;100162.23;;;;-63
2020/07/26 12:34:32;;;;;;;6.01;1.96;;;;;;;22.29;64.62;100157.83;;;;-51
2020/07/26 12:37:33;;;;;;;12.66;2.03;;;;;;;22.31;64.95;100162.06;;;;-51
2020/07/26 12:40:33;;;;;;;9.60;1.91;;;;;;;22.32;65.11;100156.16;;;;-53
2020/07/26 12:43:33;;;;;;;9.23;1.87;;;;;;;22.32;64.74;100154.18;;;;-57
2020/07/26 12:46:32;;;;;;;5.80;1.90;;;;;;;22.33;65.13;100149.76;;;;-51
2020/07/26 12:49:32;;;;;;;9.78;2.07;;;;;;;22.35;64.79;100151.16;;;;-61
2020/07/26 12:52:32;;;;;;;7.80;2.09;;;;;;;22.36;65.19;100147.53;;;;-54
2020/07/26 12:55:32;;;;;;;4.52;1.87;;;;;;;22.37;65.49;100152.77;;;;-54
2020/07/26 12:58:33;;;;;;;11.56;2.23;;;;;;;22.38;65.54;100162.55;;;;-49
2020/07/26 13:01:33;;;;;;;7.11;2.01;;;;;;;22.39;65.16;100164.66;;;;-50
2020/07/26 13:04:33;;;;;;;6.25;2.00;;;;;;;22.40;65.21;100165.54;;;;-53
2020/07/26 13:07:33;;;;;;;15.79;2.33;;;;;;;22.43;65.42;100158.48;;;;-51
2020/07/26 13:10:33;;;;;;;8.31;2.16;;;;;;;22.41;65.45;100163.33;;;;-51
2020/07/26 13:13:33;;;;;;;9.21;2.10;;;;;;;22.43;65.18;100165.09;;;;-53
2020/07/26 13:16:34;;;;;;;3.21;1.70;;;;;;;22.41;69.22;100174.66;;;;-44
2020/07/26 13:19:33;;;;;;;3.13;1.59;;;;;;;22.43;69.30;100177.59;;;;-49
2020/07/26 13:22:33;;;;;;;5.23;1.71;;;;;;;22.44;69.08;100181.41;;;;-54
2020/07/26 13:25:33;;;;;;;4.58;1.59;;;;;;;22.45;68.89;100174.94;;;;-53
2020/07/26 13:28:33;;;;;;;5.03;1.85;;;;;;;22.45;67.99;100169.17;;;;-50
2020/07/26 13:31:33;;;;;;;15.73;2.11;;;;;;;22.47;67.33;100156.80;;;;-57
2020/07/26 13:34:33;;;;;;;7.48;1.87;;;;;;;22.47;67.68;100156.95;;;;-50
2020/07/26 13:37:33;;;;;;;6.55;1.80;;;;;;;22.49;67.21;100152.03;;;;-51
2020/07/26 13:40:33;;;;;;;3.14;1.47;;;;;;;22.49;67.15;100147.62;;;;-57
2020/07/26 13:43:33;;;;;;;8.72;2.06;;;;;;;22.49;66.90;100152.47;;;;-52
2020/07/26 13:46:33;;;;;;;5.51;1.68;;;;;;;22.50;66.92;100155.72;;;;-53
2020/07/26 13:49:32;;;;;;;8.27;1.87;;;;;;;22.51;66.75;100153.98;;;;-47
2020/07/26 13:52:33;;;;;;;8.45;2.14;;;;;;;22.52;66.51;100146.56;;;;-54
2020/07/26 13:55:33;;;;;;;8.71;1.69;;;;;;;22.52;66.38;100151.78;;;;-54
2020/07/26 13:58:33;;;;;;;5.67;1.69;;;;;;;22.51;65.97;100158.64;;;;-58
2020/07/26 14:01:33;;;;;;;5.03;1.80;;;;;;;22.50;66.05;100158.75;;;;-58
2020/07/26 14:04:33;;;;;;;3.71;1.69;;;;;;;22.49;65.91;100154.32;;;;-58
2020/07/26 14:07:33;;;;;;;4.21;1.77;;;;;;;22.48;65.82;100163.98;;;;-58
2020/07/26 14:10:32;;;;;;;4.53;1.68;;;;;;;22.47;65.84;100160.23;;;;-57
2020/07/26 14:13:33;;;;;;;6.47;1.75;;;;;;;22.45;65.75;100165.14;;;;-58
2020/07/26 14:16:33;;;;;;;9.39;1.79;;;;;;;22.45;65.61;100166.23;;;;-57
2020/07/26 14:19:33;;;;;;;2.64;1.67;;;;;;;22.44;65.63;100172.76;;;;-57
2020/07/26 14:22:33;;;;;;;3.58;1.59;;;;;;;22.44;65.52;100174.72;;;;-58
2020/07/26 14:25:33;;;;;;;3.03;1.63;;;;;;;22.42;65.43;100171.31;;;;-58
2020/07/26 14:28:32;;;;;;;2.17;1.55;;;;;;;22.43;65.41;100180.04;;;;-57
2020/07/26 14:31:33;;;;;;;2.62;1.60;;;;;;;22.42;65.33;100173.77;;;;-57
2020/07/26 14:34:32;;;;;;;2.51;1.65;;;;;;;22.41;65.26;100175.41;;;;-58
2020/07/26 14:37:32;;;;;;;2.17;1.42;;;;;;;22.40;65.27;100177.88;;;;-57
2020/07/26 14:40:33;;;;;;;2.57;1.48;;;;;;;22.39;65.22;100173.80;;;;-57
2020/07/26 14:43:33;;;;;;;3.17;1.50;;;;;;;22.39;65.18;100168.73;;;;-58
2020/07/26 14:46:32;;;;;;;2.45;1.52;;;;;;;22.37;65.14;100179.55;;;;-58
2020/07/26 14:49:32;;;;;;;2.91;1.51;;;;;;;22.37;65.13;100176.03;;;;-58
2020/07/26 14:52:32;;;;;;;2.68;1.51;;;;;;;22.36;65.07;100173.25;;;;-58
2020/07/26 14:55:32;;;;;;;2.06;1.50;;;;;;;22.36;65.00;100170.08;;;;-58
2020/07/26 14:58:33;;;;;;;2.15;1.47;;;;;;;22.36;64.99;100173.01;;;;-57
2020/07/26 15:01:33;;;;;;;1.90;1.30;;;;;;;22.36;64.95;100174.31;;;;-59
2020/07/26 15:04:33;;;;;;;2.69;1.41;;;;;;;22.36;65.22;100176.84;;;;-52
2020/07/26 15:07:33;;;;;;;4.11;1.43;;;;;;;22.38;65.10;100179.27;;;;-51
2020/07/26 15:10:33;;;;;;;2.77;1.55;;;;;;;22.39;65.12;100178.70;;;;-51
2020/07/26 15:13:33;;;;;;;2.34;1.45;;;;;;;22.40;65.17;100186.93;;;;-51
2020/07/26 15:16:32;;;;;;;3.46;1.66;;;;;;;22.42;65.17;100198.91;;;;-51
2020/07/26 15:19:33;;;;;;;3.13;1.58;;;;;;;22.44;65.14;100196.54;;;;-62
2020/07/26 15:22:32;;;;;;;3.00;1.51;;;;;;;22.45;65.04;100188.61;;;;-51
2020/07/26 15:25:33;;;;;;;3.14;1.50;;;;;;;22.45;65.07;100185.73;;;;-56
2020/07/26 15:28:33;;;;;;;2.45;1.51;;;;;;;22.46;64.96;100195.12;;;;-53
2020/07/26 15:31:32;;;;;;;2.53;1.40;;;;;;;22.46;65.06;100201.81;;;;-47
2020/07/26 15:34:33;;;;;;;2.36;1.37;;;;;;;22.48;64.89;100205.47;;;;-57
2020/07/26 15:37:33;;;;;;;1.71;1.40;;;;;;;22.49;64.96;100201.12;;;;-58
2020/07/26 15:40:33;;;;;;;3.16;1.51;;;;;;;22.50;64.93;100197.45;;;;-47
2020/07/26 15:43:33;;;;;;;2.93;1.45;;;;;;;22.50;64.88;100191.25;;;;-54
2020/07/26 15:46:33;;;;;;;1.62;1.40;;;;;;;22.51;64.76;100199.47;;;;-53
2020/07/26 15:49:32;;;;;;;1.89;1.48;;;;;;;22.52;64.83;100201.10;;;;-51
2020/07/26 15:52:33;;;;;;;2.07;1.53;;;;;;;22.53;64.71;100202.87;;;;-51
2020/07/26 15:55:33;;;;;;;2.48;1.60;;;;;;;22.53;64.56;100207.69;;;;-52
2020/07/26 15:58:32;;;;;;;2.29;1.30;;;;;;;22.54;64.64;100206.87;;;;-61
2020/07/26 16:01:33;;;;;;;1.40;1.30;;;;;;;22.54;64.60;100209.39;;;;-61
2020/07/26 16:04:33;;;;;;;1.43;1.32;;;;;;;22.54;64.46;100214.89;;;;-63
2020/07/26 16:07:32;;;;;;;2.43;1.40;;;;;;;22.53;64.75;100215.94;;;;-55
2020/07/26 16:10:33;;;;;;;1.69;1.39;;;;;;;22.54;64.54;100218.72;;;;-53
2020/07/26 16:13:32;;;;;;;3.27;1.49;;;;;;;22.55;64.20;100216.25;;;;-59
2020/07/26 16:16:32;;;;;;;2.15;1.49;;;;;;;22.55;64.62;100218.39;;;;-59
2020/07/26 16:19:33;;;;;;;3.38;1.59;;;;;;;22.54;64.43;100221.90;;;;-57
2020/07/26 16:22:33;;;;;;;3.05;1.41;;;;;;;22.55;64.51;100219.27;;;;-56
2020/07/26 16:25:32;;;;;;;2.47;1.51;;;;;;;22.55;64.52;100220.00;;;;-56
2020/07/26 16:28:33;;;;;;;4.01;1.63;;;;;;;22.55;64.30;100224.66;;;;-57
2020/07/26 16:31:32;;;;;;;3.36;1.52;;;;;;;22.55;64.37;100230.80;;;;-61
2020/07/26 16:34:32;;;;;;;1.50;1.40;;;;;;;22.55;64.33;100234.70;;;;-52
2020/07/26 16:37:32;;;;;;;3.29;1.49;;;;;;;22.56;64.38;100233.55;;;;-56
2020/07/26 16:40:33;;;;;;;6.64;1.72;;;;;;;22.55;64.27;100237.88;;;;-53
2020/07/26 16:43:33;;;;;;;2.73;1.63;;;;;;;22.56;64.29;100236.26;;;;-53
2020/07/26 16:46:32;;;;;;;2.82;1.53;;;;;;;22.56;64.25;100229.81;;;;-60
2020/07/26 16:49:32;;;;;;;2.77;1.41;;;;;;;22.57;64.32;100231.09;;;;-59